createdAt,value
2022-10-22T00:02:44.004Z,13.50
2022-10-22T00:06:26.070Z,13.50
2022-10-22T00:10:09.418Z,13.40
2022-10-22T00:13:51.644Z,13.40
2022-10-22T00:17:33.346Z,13.40
2022-10-22T00:21:15.238Z,13.40
2022-10-22T00:24:57.204Z,13.50
2022-10-22T00:28:39.494Z,13.50
2022-10-22T00:32:21.277Z,13.50
2022-10-22T00:36:03.140Z,13.50
2022-10-22T00:39:45.006Z,13.50
2022-10-22T00:43:27.689Z,13.50
2022-10-22T00:47:09.489Z,13.60
2022-10-22T00:51:04.143Z,13.60
2022-10-22T00:54:46.096Z,13.60
2022-10-22T00:58:33.314Z,13.70
2022-10-22T01:02:16.106Z,13.70
2022-10-22T01:06:00.477Z,13.70
2022-10-22T01:10:05.897Z,13.70
2022-10-22T01:13:53.433Z,13.70
2022-10-22T01:17:44.454Z,13.70
2022-10-22T01:21:45.455Z,13.60
2022-10-22T01:25:53.952Z,13.50
2022-10-22T01:30:08.946Z,13.40
2022-10-22T01:33:53.265Z,13.40
2022-10-22T01:37:41.337Z,13.40
2022-10-22T01:41:23.689Z,13.40
2022-10-22T01:45:14.004Z,13.40
2022-10-22T01:49:21.934Z,13.40
2022-10-22T01:53:15.320Z,13.40
2022-10-22T01:57:18.266Z,13.40
2022-10-22T02:01:09.729Z,13.40
2022-10-22T02:05:02.333Z,13.30
2022-10-22T02:08:46.930Z,13.20
2022-10-22T02:12:30.957Z,13.10
2022-10-22T02:16:38.202Z,13.00
2022-10-22T02:20:27.272Z,12.90
2022-10-22T02:24:09.218Z,12.70
2022-10-22T02:28:10.277Z,12.60
2022-10-22T02:31:58.203Z,12.60
2022-10-22T02:35:46.800Z,12.40
2022-10-22T02:39:30.168Z,12.40
2022-10-22T02:43:12.029Z,12.30
2022-10-22T02:46:55.560Z,12.30
2022-10-22T02:50:37.502Z,12.10
2022-10-22T02:54:19.196Z,12.10
2022-10-22T02:58:00.908Z,12.00
2022-10-22T03:01:43.836Z,12.00
2022-10-22T03:05:25.544Z,11.90
2022-10-22T03:09:07.344Z,11.90
2022-10-22T03:12:49.173Z,11.80
2022-10-22T03:16:31.250Z,11.80
2022-10-22T03:20:12.979Z,11.80
2022-10-22T03:24:34.820Z,11.80
2022-10-22T03:28:18.284Z,11.70
2022-10-22T03:32:03.995Z,11.70
2022-10-22T03:35:47.901Z,11.70
2022-10-22T03:39:33.171Z,11.60
2022-10-22T03:43:15.409Z,11.70
2022-10-22T03:47:00.122Z,11.60
2022-10-22T03:50:44.302Z,11.60
2022-10-22T03:54:26.135Z,11.60
2022-10-22T03:58:07.908Z,11.60
2022-10-22T04:01:49.597Z,11.50
2022-10-22T04:05:33.981Z,11.50
2022-10-22T04:09:16.797Z,11.50
2022-10-22T04:12:58.632Z,11.40
2022-10-22T04:16:41.571Z,11.40
2022-10-22T04:20:23.772Z,11.40
2022-10-22T04:24:05.743Z,11.40
2022-10-22T04:27:48.462Z,11.40
2022-10-22T04:31:30.134Z,11.40
2022-10-22T04:35:12.151Z,11.40
2022-10-22T04:38:57.599Z,11.40
2022-10-22T04:42:39.615Z,11.40
2022-10-22T04:46:21.554Z,11.30
2022-10-22T04:50:03.662Z,11.30
2022-10-22T04:53:48.046Z,11.40
2022-10-22T04:57:31.192Z,11.40
2022-10-22T05:01:19.446Z,11.40
2022-10-22T05:05:01.738Z,11.40
2022-10-22T05:08:43.756Z,11.30
2022-10-22T05:12:26.075Z,11.40
2022-10-22T05:16:08.114Z,11.40
2022-10-22T05:19:49.985Z,11.40
2022-10-22T05:23:31.715Z,11.30
2022-10-22T05:27:15.234Z,11.40
2022-10-22T05:30:58.565Z,11.30
2022-10-22T05:34:40.257Z,11.40
2022-10-22T05:38:24.357Z,11.40
2022-10-22T05:42:06.141Z,11.40
2022-10-22T05:45:47.838Z,11.40
2022-10-22T05:49:29.589Z,11.30
2022-10-22T05:53:12.017Z,11.30
2022-10-22T05:56:55.554Z,11.30
2022-10-22T06:00:37.340Z,11.30
2022-10-22T06:04:20.594Z,11.30
2022-10-22T06:08:02.591Z,11.20
2022-10-22T06:11:45.525Z,11.20
2022-10-22T06:15:27.430Z,11.20
2022-10-22T06:19:14.338Z,11.10
2022-10-22T06:22:56.044Z,11.10
2022-10-22T06:26:38.517Z,11.10
2022-10-22T06:30:20.590Z,11.10
2022-10-22T06:34:12.534Z,11.10
2022-10-22T06:37:54.287Z,11.00
2022-10-22T06:41:36.143Z,11.10
2022-10-22T06:45:17.993Z,11.10
2022-10-22T06:49:02.971Z,11.10
2022-10-22T06:52:44.670Z,11.10
2022-10-22T06:56:29.403Z,11.10
2022-10-22T07:00:11.798Z,11.10
2022-10-22T07:03:56.541Z,11.10
2022-10-22T07:07:38.266Z,11.10
2022-10-22T07:11:23.636Z,11.20
2022-10-22T07:15:05.924Z,11.20
2022-10-22T07:18:48.143Z,11.20
2022-10-22T07:22:29.935Z,11.30
2022-10-22T07:26:14.262Z,11.40
2022-10-22T07:29:56.257Z,11.40
2022-10-22T07:33:38.200Z,11.50
2022-10-22T07:37:21.999Z,11.50
2022-10-22T07:41:04.295Z,11.60
2022-10-22T07:44:46.043Z,11.70
2022-10-22T07:48:27.909Z,11.80
2022-10-22T07:52:11.254Z,11.90
2022-10-22T07:55:53.474Z,12.10
2022-10-22T07:59:35.179Z,12.30
2022-10-22T08:03:18.938Z,12.50
2022-10-22T08:07:01.312Z,12.70
2022-10-22T08:10:44.080Z,12.80
2022-10-22T08:14:26.202Z,12.90
2022-10-22T08:18:08.007Z,13.00
2022-10-22T08:21:49.785Z,13.10
2022-10-22T08:25:32.655Z,13.30
2022-10-22T08:29:14.653Z,13.40
2022-10-22T08:32:56.776Z,13.60
2022-10-22T08:36:38.819Z,13.80
2022-10-22T08:40:30.449Z,14.10
2022-10-22T08:44:50.508Z,14.50
2022-10-22T08:48:41.174Z,14.90
2022-10-22T08:52:22.958Z,15.30
2022-10-22T08:56:06.450Z,15.70
2022-10-22T09:00:00.841Z,16.10
2022-10-22T09:03:45.727Z,16.40
2022-10-22T09:07:27.573Z,16.50
2022-10-22T09:11:15.727Z,16.50
2022-10-22T09:14:57.621Z,16.70
2022-10-22T09:18:57.365Z,17.00
2022-10-22T09:23:21.182Z,17.50
2022-10-22T09:27:16.881Z,17.90
2022-10-22T09:34:40.816Z,18.20
2022-10-22T09:38:39.533Z,18.20
2022-10-22T09:42:22.801Z,18.00
2022-10-22T09:50:46.443Z,18.70
2022-10-22T09:54:34.022Z,19.00
2022-10-22T09:58:18.682Z,19.60
2022-10-22T10:02:19.742Z,20.10
2022-10-22T10:06:08.578Z,20.20
2022-10-22T10:09:51.610Z,19.80
2022-10-22T10:13:40.454Z,19.50
2022-10-22T10:17:37.065Z,19.40
2022-10-22T10:21:51.026Z,19.60
2022-10-22T10:25:35.921Z,20.40
2022-10-22T10:29:25.544Z,20.90
2022-10-22T10:33:13.069Z,21.50
2022-10-22T10:37:09.721Z,21.70
2022-10-22T10:40:54.043Z,21.90
2022-10-22T10:44:44.222Z,21.70
2022-10-22T10:48:44.163Z,21.30
2022-10-22T10:52:45.709Z,20.90
2022-10-22T10:56:34.432Z,20.40
2022-10-22T11:00:22.025Z,19.90
2022-10-22T11:04:22.105Z,19.50
2022-10-22T11:08:15.443Z,19.10
2022-10-22T11:12:05.856Z,18.70
2022-10-22T11:16:17.859Z,18.40
2022-10-22T11:20:16.987Z,18.20
2022-10-22T11:24:28.571Z,18.50
2022-10-22T11:28:13.154Z,19.30
2022-10-22T11:31:56.242Z,19.80
2022-10-22T11:35:42.281Z,19.80
2022-10-22T11:39:38.747Z,19.60
2022-10-22T11:43:31.778Z,19.30
2022-10-22T11:47:26.413Z,19.10
2022-10-22T11:51:32.892Z,19.10
2022-10-22T11:55:55.757Z,19.10
2022-10-22T11:59:48.129Z,19.00
2022-10-22T12:03:33.113Z,18.80
2022-10-22T12:07:48.857Z,18.50
2022-10-22T12:11:51.294Z,18.20
2022-10-22T12:15:33.151Z,18.10
2022-10-22T12:19:24.351Z,18.20
2022-10-22T12:23:09.508Z,18.40
2022-10-22T12:26:53.535Z,18.50
2022-10-22T12:30:35.639Z,18.60
2022-10-22T12:34:22.222Z,18.70
2022-10-22T12:38:13.563Z,18.80
2022-10-22T12:41:55.434Z,18.80
2022-10-22T12:45:38.499Z,19.10
2022-10-22T12:49:35.267Z,19.40
2022-10-22T12:53:26.989Z,19.40
2022-10-22T12:57:15.585Z,19.30
2022-10-22T13:01:01.917Z,19.10
2022-10-22T13:05:18.538Z,19.00
2022-10-22T13:09:00.564Z,18.70
2022-10-22T13:12:48.938Z,18.70
2022-10-22T13:16:32.101Z,18.70
2022-10-22T13:20:23.896Z,18.60
2022-10-22T13:24:24.208Z,18.40
2022-10-22T13:28:15.025Z,18.30
2022-10-22T13:31:56.789Z,18.30
2022-10-22T13:35:38.798Z,18.40
2022-10-22T13:39:23.321Z,18.40
2022-10-22T13:43:05.057Z,18.30
2022-10-22T13:46:48.367Z,18.20
2022-10-22T13:50:30.182Z,18.10
2022-10-22T13:54:21.065Z,18.00
2022-10-22T13:58:14.731Z,18.00
2022-10-22T14:01:57.067Z,17.90
2022-10-22T14:05:38.954Z,17.90
2022-10-22T14:09:20.929Z,17.80
2022-10-22T14:13:03.057Z,17.80
2022-10-22T14:16:45.146Z,17.70
2022-10-22T14:20:30.594Z,17.80
2022-10-22T14:24:13.380Z,17.70
2022-10-22T14:27:56.546Z,17.80
2022-10-22T14:31:44.331Z,17.80
2022-10-22T14:35:26.962Z,17.80
2022-10-22T14:39:08.695Z,17.90
2022-10-22T14:42:50.501Z,17.90
2022-10-22T14:46:32.426Z,17.90
2022-10-22T14:50:16.997Z,17.90
2022-10-22T14:53:58.798Z,17.90
2022-10-22T14:57:41.003Z,17.90
2022-10-22T15:01:23.355Z,17.90
2022-10-22T15:05:05.791Z,17.90
2022-10-22T15:08:51.383Z,17.90
2022-10-22T15:12:33.647Z,17.80
2022-10-22T15:16:16.548Z,17.70
2022-10-22T15:20:01.113Z,17.60
2022-10-22T15:23:42.877Z,17.50
2022-10-22T15:27:25.350Z,17.40
2022-10-22T15:31:08.115Z,17.30
2022-10-22T15:34:53.171Z,17.30
2022-10-22T15:38:34.898Z,17.20
2022-10-22T15:42:16.738Z,17.10
2022-10-22T15:46:16.610Z,17.10
2022-10-22T15:49:58.843Z,17.00
2022-10-22T15:53:41.176Z,17.00
2022-10-22T15:57:22.981Z,16.90
2022-10-22T16:01:10.509Z,16.90
2022-10-22T16:04:52.571Z,16.80
2022-10-22T16:08:34.900Z,16.70
2022-10-22T16:12:17.381Z,16.70
2022-10-22T16:16:04.522Z,16.60
2022-10-22T16:19:48.061Z,16.60
2022-10-22T16:23:29.842Z,16.60
2022-10-22T16:27:11.609Z,16.60
2022-10-22T16:30:54.377Z,16.50
2022-10-22T16:34:36.213Z,16.50
2022-10-22T16:38:19.044Z,16.40
2022-10-22T16:42:00.825Z,16.40
2022-10-22T16:45:52.045Z,16.30
2022-10-22T16:49:33.786Z,16.20
2022-10-22T16:53:15.552Z,16.10
2022-10-22T16:56:57.353Z,16.10
2022-10-22T17:00:39.318Z,16.10
2022-10-22T17:04:22.442Z,16.10
2022-10-22T17:08:04.459Z,16.10
2022-10-22T17:11:46.476Z,16.10
2022-10-22T17:15:28.234Z,16.00
2022-10-22T17:19:14.191Z,16.10
2022-10-22T17:22:55.968Z,16.10
2022-10-22T17:26:37.906Z,16.10
2022-10-22T17:30:23.475Z,16.10
2022-10-22T17:34:11.726Z,16.00
2022-10-22T17:37:53.423Z,16.00
2022-10-22T17:41:37.441Z,16.00
2022-10-22T17:45:19.986Z,15.90
2022-10-22T17:49:12.273Z,15.90
2022-10-22T17:52:54.174Z,15.70
2022-10-22T17:56:37.113Z,15.50
2022-10-22T18:00:21.446Z,15.40
2022-10-22T18:04:08.448Z,15.30
2022-10-22T18:07:54.660Z,15.30
2022-10-22T18:11:37.372Z,15.20
2022-10-22T18:15:19.167Z,15.20
2022-10-22T18:19:01.679Z,15.10
2022-10-22T18:22:45.340Z,15.00
2022-10-22T18:26:27.342Z,15.00
2022-10-22T18:30:09.587Z,14.90
2022-10-22T18:33:51.837Z,14.90
2022-10-22T18:37:36.027Z,14.80
2022-10-22T18:41:18.153Z,14.80
2022-10-22T18:44:59.986Z,14.80
2022-10-22T18:48:42.038Z,14.80
2022-10-22T18:52:23.910Z,14.70
2022-10-22T18:56:07.442Z,14.70
2022-10-22T18:59:49.151Z,14.80
2022-10-22T19:03:31.005Z,14.80
2022-10-22T19:07:13.326Z,14.70
2022-10-22T19:10:55.283Z,14.80
2022-10-22T19:14:37.050Z,14.70
2022-10-22T19:18:19.624Z,14.80
2022-10-22T19:22:01.341Z,14.80
2022-10-22T19:25:43.091Z,14.80
2022-10-22T19:29:24.960Z,14.80
2022-10-22T19:33:09.623Z,14.90
2022-10-22T19:36:51.855Z,14.80
2022-10-22T19:40:33.817Z,14.90
2022-10-22T19:44:15.848Z,14.80
2022-10-22T19:47:57.576Z,14.80
2022-10-22T19:51:40.407Z,14.90
2022-10-22T19:55:22.193Z,14.80
2022-10-22T19:59:05.210Z,14.80
2022-10-22T20:02:47.006Z,14.70
2022-10-22T20:06:29.712Z,14.70
2022-10-22T20:10:12.044Z,14.70
2022-10-22T20:13:55.111Z,14.70
2022-10-22T20:17:37.001Z,14.70
2022-10-22T20:21:19.386Z,14.70
2022-10-22T20:25:01.129Z,14.70
2022-10-22T20:28:42.844Z,14.70
2022-10-22T20:32:27.036Z,14.80
2022-10-22T20:36:13.233Z,14.80
2022-10-22T20:39:55.139Z,14.70
2022-10-22T20:43:37.267Z,14.80
2022-10-22T20:47:19.103Z,14.80
2022-10-22T20:51:01.665Z,14.80
2022-10-22T20:54:45.721Z,14.80
2022-10-22T20:58:30.557Z,14.80
2022-10-22T21:02:12.873Z,14.80
2022-10-22T21:05:54.707Z,14.80
2022-10-22T21:09:37.208Z,14.80
2022-10-22T21:13:19.508Z,14.80
2022-10-22T21:17:01.575Z,14.70
2022-10-22T21:20:43.612Z,14.80
2022-10-22T21:24:26.358Z,14.70
2022-10-22T21:28:08.196Z,14.70
2022-10-22T21:31:50.002Z,14.70
2022-10-22T21:35:33.355Z,14.70
2022-10-22T21:39:15.125Z,14.60
2022-10-22T21:42:57.116Z,14.70
2022-10-22T21:46:38.888Z,14.60
2022-10-22T21:50:20.823Z,14.60
2022-10-22T21:54:02.710Z,14.60
2022-10-22T21:57:44.900Z,14.70
2022-10-22T22:01:27.245Z,14.60
2022-10-22T22:05:09.569Z,14.60
2022-10-22T22:08:53.274Z,14.60
2022-10-22T22:12:35.386Z,14.60
2022-10-22T22:16:28.543Z,14.60
2022-10-22T22:20:11.295Z,14.60
2022-10-22T22:23:53.086Z,14.60
2022-10-22T22:27:34.925Z,14.60
2022-10-22T22:31:24.905Z,14.50
2022-10-22T22:35:06.892Z,14.50
2022-10-22T22:38:48.729Z,14.50
2022-10-22T22:42:30.427Z,14.50
2022-10-22T22:46:12.715Z,14.60
2022-10-22T22:49:54.480Z,14.50
2022-10-22T22:53:36.413Z,14.50
2022-10-22T22:57:18.159Z,14.50
2022-10-22T23:01:25.785Z,14.50
2022-10-22T23:05:08.161Z,14.50
2022-10-22T23:13:11.367Z,14.40
2022-10-22T23:16:53.427Z,14.40
2022-10-22T23:20:38.078Z,14.40
2022-10-22T23:24:23.194Z,14.50
2022-10-22T23:28:05.053Z,14.50
2022-10-22T23:31:48.262Z,14.50
2022-10-22T23:35:30.190Z,14.50
2022-10-22T23:39:15.066Z,14.50
2022-10-22T23:42:56.812Z,14.50
2022-10-22T23:46:38.930Z,14.40
2022-10-22T23:50:20.710Z,14.40
2022-10-22T23:54:06.378Z,14.40
2022-10-22T23:57:48.277Z,14.40
